createdAt,value
2023-03-05T00:00:47.988Z,3.70
2023-03-05T00:01:50.650Z,4.10
2023-03-05T00:02:53.301Z,3.83
2023-03-05T00:03:56.759Z,4.32
2023-03-05T00:04:59.254Z,3.97
2023-03-05T00:06:02.196Z,3.92
2023-03-05T00:07:05.566Z,4.22
2023-03-05T00:08:08.093Z,3.58
2023-03-05T00:09:11.150Z,4.10
2023-03-05T00:10:13.731Z,4.15
2023-03-05T00:11:16.878Z,3.78
2023-03-05T00:12:19.414Z,3.90
2023-03-05T00:13:22.015Z,3.17
2023-03-05T00:14:24.623Z,3.67
2023-03-05T00:15:27.228Z,3.80
2023-03-05T00:16:30.370Z,5.03
2023-03-05T00:17:32.953Z,3.95
2023-03-05T00:18:36.032Z,3.03
2023-03-05T00:19:38.582Z,4.25
2023-03-05T00:20:41.181Z,4.07
2023-03-05T00:21:43.778Z,3.92
2023-03-05T00:22:46.426Z,4.13
2023-03-05T00:23:50.791Z,3.67
2023-03-05T00:24:53.586Z,3.83
2023-03-05T00:25:56.170Z,3.50
2023-03-05T00:26:58.854Z,3.60
2023-03-05T00:28:01.376Z,3.97
2023-03-05T00:29:04.236Z,3.60
2023-03-05T00:30:07.807Z,2.88
2023-03-05T00:31:12.183Z,3.35
2023-03-05T00:32:15.244Z,3.95
2023-03-05T00:33:17.748Z,2.90
2023-03-05T00:34:21.012Z,3.53
2023-03-05T00:35:23.670Z,2.78
2023-03-05T00:36:26.964Z,3.97
2023-03-05T00:37:29.646Z,3.75
2023-03-05T00:38:32.340Z,3.97
2023-03-05T00:39:35.025Z,3.30
2023-03-05T00:40:40.216Z,2.78
2023-03-05T00:41:42.933Z,3.30
2023-03-05T00:42:45.638Z,3.83
2023-03-05T00:43:49.128Z,4.70
2023-03-05T00:44:52.200Z,3.65
2023-03-05T00:45:54.941Z,2.95
2023-03-05T00:46:57.496Z,2.58
2023-03-05T00:48:00.480Z,3.60
2023-03-05T00:49:03.305Z,3.40
2023-03-05T00:50:07.250Z,3.40
2023-03-05T00:51:09.971Z,3.47
2023-03-05T00:52:12.638Z,2.55
2023-03-05T00:53:15.175Z,3.78
2023-03-05T00:54:17.880Z,3.45
2023-03-05T00:55:20.756Z,2.80
2023-03-05T00:56:23.728Z,3.20
2023-03-05T00:57:26.462Z,3.47
2023-03-05T00:58:29.854Z,3.53
2023-03-05T00:59:32.403Z,3.50
2023-03-05T01:00:35.131Z,2.88
2023-03-05T01:01:37.989Z,3.25
2023-03-05T01:02:40.985Z,3.53
2023-03-05T01:03:43.696Z,3.28
2023-03-05T01:04:47.485Z,3.45
2023-03-05T01:05:51.243Z,2.53
2023-03-05T01:06:53.675Z,3.58
2023-03-05T01:07:56.871Z,3.15
2023-03-05T01:09:00.496Z,3.28
2023-03-05T01:10:04.508Z,3.53
2023-03-05T01:11:08.637Z,2.88
2023-03-05T01:12:11.241Z,3.50
2023-03-05T01:13:13.812Z,2.80
2023-03-05T01:14:16.324Z,3.75
2023-03-05T01:15:18.996Z,2.95
2023-03-05T01:16:21.567Z,3.00
2023-03-05T01:17:24.328Z,3.28
2023-03-05T01:18:27.404Z,3.17
2023-03-05T01:19:30.097Z,3.00
2023-03-05T01:20:33.042Z,3.10
2023-03-05T01:21:37.007Z,3.08
2023-03-05T01:22:40.116Z,2.90
2023-03-05T01:23:42.793Z,2.72
2023-03-05T01:24:45.449Z,3.65
2023-03-05T01:25:57.297Z,3.03
2023-03-05T01:26:59.884Z,3.00
2023-03-05T01:28:02.762Z,3.50
2023-03-05T01:29:05.557Z,3.28
2023-03-05T01:30:10.428Z,4.38
2023-03-05T01:31:13.447Z,3.78
2023-03-05T01:32:16.154Z,3.45
2023-03-05T01:33:18.727Z,2.92
2023-03-05T01:34:21.480Z,3.65
2023-03-05T01:35:25.216Z,3.72
2023-03-05T01:36:27.785Z,3.42
2023-03-05T01:37:30.673Z,3.38
2023-03-05T01:38:33.438Z,3.28
2023-03-05T01:39:36.494Z,3.60
2023-03-05T01:40:38.990Z,3.72
2023-03-05T01:41:41.477Z,3.13
2023-03-05T01:42:48.476Z,3.63
2023-03-05T01:43:52.971Z,2.83
2023-03-05T01:45:02.815Z,3.30
2023-03-05T01:46:39.465Z,3.53
2023-03-05T01:47:42.055Z,2.90
2023-03-05T01:49:08.993Z,3.22
2023-03-05T01:50:14.726Z,3.75
2023-03-05T01:51:18.823Z,3.17
2023-03-05T01:52:23.636Z,2.83
2023-03-05T01:53:26.318Z,2.95
2023-03-05T01:54:39.383Z,3.08
2023-03-05T01:55:42.401Z,3.67
2023-03-05T01:56:46.381Z,3.15
2023-03-05T01:57:53.731Z,3.60
2023-03-05T01:59:03.437Z,3.53
2023-03-05T02:00:17.890Z,3.00
2023-03-05T02:01:20.962Z,3.45
2023-03-05T02:02:23.757Z,4.35
2023-03-05T02:03:26.655Z,3.63
2023-03-05T02:04:34.861Z,3.60
2023-03-05T02:05:39.356Z,2.90
2023-03-05T02:06:43.115Z,3.92
2023-03-05T02:07:47.506Z,4.10
2023-03-05T02:08:50.225Z,3.55
2023-03-05T02:09:53.122Z,3.38
2023-03-05T02:11:00.459Z,4.05
2023-03-05T02:12:03.600Z,3.95
2023-03-05T02:13:12.911Z,3.60
2023-03-05T02:14:15.612Z,3.65
2023-03-05T02:15:18.762Z,4.25
2023-03-05T02:16:21.390Z,3.13
2023-03-05T02:17:24.006Z,3.28
2023-03-05T02:18:26.684Z,4.32
2023-03-05T02:19:29.253Z,3.17
2023-03-05T02:20:53.948Z,3.63
2023-03-05T02:21:56.632Z,3.72
2023-03-05T02:22:59.408Z,4.15
2023-03-05T02:24:02.220Z,3.83
2023-03-05T02:25:27.550Z,3.95
2023-03-05T02:26:30.560Z,3.53
2023-03-05T02:27:35.153Z,4.00
2023-03-05T02:28:47.746Z,4.18
2023-03-05T02:29:52.062Z,3.83
2023-03-05T02:30:54.994Z,4.15
2023-03-05T02:31:58.210Z,3.38
2023-03-05T02:33:01.085Z,3.70
2023-03-05T02:34:04.193Z,3.88
2023-03-05T02:35:07.126Z,3.30
2023-03-05T02:36:12.087Z,3.42
2023-03-05T02:37:14.750Z,2.97
2023-03-05T02:38:20.011Z,3.58
2023-03-05T02:39:22.606Z,3.20
2023-03-05T02:40:25.270Z,3.85
2023-03-05T02:41:28.316Z,3.70
2023-03-05T02:42:33.673Z,3.30
2023-03-05T02:43:37.080Z,3.35
2023-03-05T02:44:39.671Z,3.78
2023-03-05T02:45:42.384Z,3.10
2023-03-05T02:46:45.087Z,2.97
2023-03-05T02:47:48.026Z,2.85
2023-03-05T02:48:50.973Z,3.38
2023-03-05T02:49:54.451Z,2.75
2023-03-05T02:50:58.519Z,3.78
2023-03-05T02:52:01.211Z,3.75
2023-03-05T02:53:04.003Z,2.72
2023-03-05T02:54:06.614Z,3.25
2023-03-05T02:55:09.547Z,3.15
2023-03-05T02:56:13.271Z,3.50
2023-03-05T02:57:16.236Z,3.65
2023-03-05T02:58:19.059Z,2.67
2023-03-05T02:59:21.701Z,3.30
2023-03-05T03:00:24.589Z,3.53
2023-03-05T03:01:28.525Z,3.33
2023-03-05T03:02:31.809Z,3.17
2023-03-05T03:03:34.684Z,2.60
2023-03-05T03:04:37.428Z,3.38
2023-03-05T03:05:39.986Z,3.40
2023-03-05T03:06:42.478Z,3.20
2023-03-05T03:07:45.521Z,3.08
2023-03-05T03:08:48.126Z,4.00
2023-03-05T03:09:50.923Z,3.97
2023-03-05T03:10:53.586Z,4.05
2023-03-05T03:11:56.388Z,3.88
2023-03-05T03:12:59.438Z,3.08
2023-03-05T03:14:02.030Z,3.55
2023-03-05T03:15:05.060Z,3.38
2023-03-05T03:16:10.468Z,3.63
2023-03-05T03:17:15.410Z,3.72
2023-03-05T03:18:17.930Z,3.55
2023-03-05T03:19:20.581Z,3.67
2023-03-05T03:20:23.336Z,4.43
2023-03-05T03:21:27.016Z,3.67
2023-03-05T03:22:29.974Z,3.55
2023-03-05T03:23:32.761Z,3.47
2023-03-05T03:24:36.380Z,3.38
2023-03-05T03:25:38.888Z,3.30
2023-03-05T03:26:41.554Z,4.03
2023-03-05T03:27:44.106Z,3.50
2023-03-05T03:28:47.451Z,3.40
2023-03-05T03:29:50.063Z,3.38
2023-03-05T03:30:52.534Z,4.43
2023-03-05T03:31:55.117Z,4.03
2023-03-05T03:32:57.950Z,3.65
2023-03-05T03:34:00.533Z,4.07
2023-03-05T03:35:03.186Z,3.83
2023-03-05T03:36:06.373Z,3.55
2023-03-05T03:37:09.281Z,3.65
2023-03-05T03:38:13.810Z,3.53
2023-03-05T03:39:17.231Z,4.25
2023-03-05T03:40:19.884Z,4.22
2023-03-05T03:41:22.461Z,3.70
2023-03-05T03:42:25.506Z,4.70
2023-03-05T03:43:28.130Z,4.38
2023-03-05T03:44:30.870Z,4.82
2023-03-05T03:45:33.788Z,3.53
2023-03-05T03:46:36.790Z,5.35
2023-03-05T03:47:39.354Z,4.18
2023-03-05T03:48:42.043Z,3.75
2023-03-05T03:49:44.755Z,4.00
2023-03-05T03:50:47.536Z,4.10
2023-03-05T03:51:51.408Z,4.80
2023-03-05T03:52:53.907Z,4.22
2023-03-05T03:53:56.764Z,4.28
2023-03-05T03:55:01.777Z,4.40
2023-03-05T03:56:04.903Z,5.05
2023-03-05T03:57:07.534Z,4.72
2023-03-05T03:58:10.054Z,4.07
2023-03-05T03:59:13.110Z,4.30
2023-03-05T04:00:16.168Z,4.57
2023-03-05T04:01:20.133Z,4.63
2023-03-05T04:02:23.089Z,4.43
2023-03-05T04:03:25.615Z,4.72
2023-03-05T04:04:30.359Z,4.13
2023-03-05T04:05:33.232Z,4.57
2023-03-05T04:06:35.803Z,4.88
2023-03-05T04:07:38.373Z,5.35
2023-03-05T04:08:40.961Z,3.60
2023-03-05T04:09:43.583Z,5.10
2023-03-05T04:10:46.275Z,4.68
2023-03-05T04:11:49.231Z,4.70
2023-03-05T04:12:52.063Z,4.93
2023-03-05T04:13:54.745Z,4.05
2023-03-05T04:14:57.414Z,4.93
2023-03-05T04:16:00.069Z,3.95
2023-03-05T04:17:03.020Z,5.05
2023-03-05T04:18:05.694Z,4.72
2023-03-05T04:19:08.266Z,4.30
2023-03-05T04:20:11.572Z,4.13
2023-03-05T04:21:14.064Z,5.43
2023-03-05T04:22:17.562Z,4.25
2023-03-05T04:23:20.657Z,4.30
2023-03-05T04:24:23.239Z,4.40
2023-03-05T04:25:25.913Z,4.13
2023-03-05T04:26:28.516Z,4.80
2023-03-05T04:27:31.100Z,5.78
2023-03-05T04:28:34.057Z,4.50
2023-03-05T04:29:37.236Z,4.25
2023-03-05T04:30:39.795Z,4.18
2023-03-05T04:31:42.423Z,4.63
2023-03-05T04:32:44.973Z,4.57
2023-03-05T04:33:47.572Z,4.78
2023-03-05T04:34:50.278Z,4.38
2023-03-05T04:35:53.165Z,3.92
2023-03-05T04:36:55.739Z,4.80
2023-03-05T04:37:58.678Z,4.80
2023-03-05T04:39:01.351Z,4.68
2023-03-05T04:40:05.243Z,4.60
2023-03-05T04:41:07.755Z,4.63
2023-03-05T04:42:10.712Z,4.90
2023-03-05T04:43:13.400Z,5.90
2023-03-05T04:44:17.818Z,4.15
2023-03-05T04:45:20.426Z,4.93
2023-03-05T04:46:23.013Z,4.85
2023-03-05T04:47:26.062Z,4.32
2023-03-05T04:48:28.737Z,4.38
2023-03-05T04:49:31.600Z,5.45
2023-03-05T04:50:34.421Z,3.90
2023-03-05T04:51:37.017Z,4.72
2023-03-05T04:52:41.403Z,4.97
2023-03-05T04:53:44.789Z,4.95
2023-03-05T04:54:47.564Z,3.58
2023-03-05T04:55:56.782Z,4.63
2023-03-05T04:56:59.419Z,4.63
2023-03-05T04:58:02.221Z,4.65
2023-03-05T04:59:04.747Z,4.53
2023-03-05T05:00:14.414Z,4.32
2023-03-05T05:01:17.447Z,3.10
2023-03-05T05:02:20.284Z,4.82
2023-03-05T05:03:22.751Z,3.53
2023-03-05T05:04:25.665Z,5.72
2023-03-05T05:05:29.044Z,4.63
2023-03-05T05:06:31.690Z,4.30
2023-03-05T05:07:34.603Z,4.15
2023-03-05T05:08:37.343Z,4.35
2023-03-05T05:09:41.605Z,5.00
2023-03-05T05:10:44.118Z,4.43
2023-03-05T05:11:46.708Z,4.57
2023-03-05T05:12:49.238Z,5.35
2023-03-05T05:13:51.767Z,3.97
2023-03-05T05:14:55.839Z,5.65
2023-03-05T05:15:59.022Z,3.88
2023-03-05T05:17:05.082Z,4.95
2023-03-05T05:18:07.708Z,4.45
2023-03-05T05:19:10.269Z,4.38
2023-03-05T05:20:14.300Z,4.47
2023-03-05T05:21:18.610Z,4.15
2023-03-05T05:22:22.736Z,5.47
2023-03-05T05:23:27.408Z,4.95
2023-03-05T05:24:30.177Z,4.60
2023-03-05T05:25:32.844Z,4.32
2023-03-05T05:26:35.726Z,3.95
2023-03-05T05:27:40.019Z,4.78
2023-03-05T05:28:43.777Z,4.60
2023-03-05T05:29:50.233Z,4.18
2023-03-05T05:30:52.909Z,4.15
2023-03-05T05:31:56.525Z,4.38
2023-03-05T05:32:59.933Z,4.43
2023-03-05T05:34:02.518Z,4.45
2023-03-05T05:35:05.745Z,4.20
2023-03-05T05:36:10.850Z,4.70
2023-03-05T05:37:14.096Z,4.57
2023-03-05T05:38:17.087Z,5.85
2023-03-05T05:39:20.568Z,5.55
2023-03-05T05:40:23.266Z,4.72
2023-03-05T05:41:26.042Z,4.75
2023-03-05T05:42:29.590Z,4.78
2023-03-05T05:43:32.303Z,4.65
2023-03-05T05:44:35.042Z,4.93
2023-03-05T05:45:40.801Z,4.07
2023-03-05T05:46:43.597Z,5.82
2023-03-05T05:47:46.192Z,8.25
2023-03-05T05:48:49.129Z,5.72
2023-03-05T05:49:52.041Z,5.70
2023-03-05T05:50:54.588Z,5.70
2023-03-05T05:51:57.952Z,5.00
2023-03-05T05:53:00.533Z,6.20
2023-03-05T05:54:03.171Z,4.75
2023-03-05T05:55:06.517Z,5.05
2023-03-05T05:56:09.823Z,4.53
2023-03-05T05:57:12.460Z,4.45
2023-03-05T05:58:14.975Z,4.45
2023-03-05T05:59:17.424Z,4.18
2023-03-05T06:00:20.461Z,4.72
2023-03-05T06:01:28.978Z,4.55
2023-03-05T06:02:31.610Z,4.53
2023-03-05T06:03:34.293Z,4.65
2023-03-05T06:04:37.288Z,4.85
2023-03-05T06:05:41.879Z,4.28
2023-03-05T06:06:44.707Z,4.80
2023-03-05T06:07:47.360Z,4.70
2023-03-05T06:08:51.173Z,4.80
2023-03-05T06:09:53.731Z,5.78
2023-03-05T06:10:56.379Z,5.95
2023-03-05T06:11:59.036Z,7.00
2023-03-05T06:13:01.889Z,5.65
2023-03-05T06:14:04.717Z,5.43
2023-03-05T06:15:07.870Z,5.07
2023-03-05T06:16:16.013Z,5.93
2023-03-05T06:17:28.668Z,5.45
2023-03-05T06:18:33.972Z,4.57
2023-03-05T06:19:36.633Z,5.65
2023-03-05T06:20:39.214Z,5.38
2023-03-05T06:21:43.467Z,4.95
2023-03-05T06:22:46.531Z,5.68
2023-03-05T06:23:49.724Z,4.55
2023-03-05T06:24:52.682Z,5.35
2023-03-05T06:25:55.955Z,4.53
2023-03-05T06:26:58.544Z,4.85
2023-03-05T06:28:01.208Z,5.18
2023-03-05T06:29:03.945Z,5.82
2023-03-05T06:30:07.689Z,5.70
2023-03-05T06:31:17.389Z,5.47
2023-03-05T06:32:21.842Z,5.28
2023-03-05T06:33:25.400Z,4.82
2023-03-05T06:34:27.844Z,4.97
2023-03-05T06:35:30.576Z,4.70
2023-03-05T06:36:33.621Z,4.43
2023-03-05T06:37:36.357Z,3.83
2023-03-05T06:38:39.813Z,4.25
2023-03-05T06:39:42.457Z,5.07
2023-03-05T06:40:45.091Z,4.68
2023-03-05T06:41:51.945Z,4.68
2023-03-05T06:42:54.649Z,4.03
2023-03-05T06:43:59.835Z,5.38
2023-03-05T06:45:02.605Z,4.72
2023-03-05T06:46:17.419Z,5.05
2023-03-05T06:47:20.211Z,4.80
2023-03-05T06:48:22.743Z,4.10
2023-03-05T06:49:26.199Z,5.15
2023-03-05T06:50:29.289Z,4.78
2023-03-05T06:51:34.750Z,5.53
2023-03-05T06:52:40.468Z,4.93
2023-03-05T06:53:43.852Z,5.07
2023-03-05T06:54:46.452Z,4.90
2023-03-05T06:55:49.201Z,5.47
2023-03-05T06:56:51.760Z,5.65
2023-03-05T06:57:54.474Z,4.43
2023-03-05T06:58:57.368Z,4.93
2023-03-05T07:00:00.106Z,4.07
2023-03-05T07:01:05.657Z,4.80
2023-03-05T07:02:11.342Z,4.90
2023-03-05T07:03:14.290Z,5.15
2023-03-05T07:04:17.154Z,4.70
2023-03-05T07:05:19.753Z,4.82
2023-03-05T07:06:22.633Z,4.97
2023-03-05T07:07:25.280Z,4.85
2023-03-05T07:08:27.904Z,4.68
2023-03-05T07:09:30.970Z,4.97
2023-03-05T07:10:41.211Z,4.93
2023-03-05T07:11:44.174Z,4.95
2023-03-05T07:12:46.777Z,5.60
2023-03-05T07:13:49.665Z,4.78
2023-03-05T07:14:52.304Z,4.28
2023-03-05T07:15:55.335Z,4.30
2023-03-05T07:16:58.002Z,4.88
2023-03-05T07:18:00.860Z,5.57
2023-03-05T07:19:06.442Z,4.65
2023-03-05T07:20:10.049Z,4.97
2023-03-05T07:21:18.047Z,5.25
2023-03-05T07:22:20.650Z,4.25
2023-03-05T07:23:23.265Z,4.50
2023-03-05T07:24:29.912Z,4.93
2023-03-05T07:25:32.821Z,4.55
2023-03-05T07:26:36.029Z,4.95
2023-03-05T07:27:39.113Z,4.80
2023-03-05T07:28:41.722Z,5.53
2023-03-05T07:29:44.347Z,4.65
2023-03-05T07:30:56.488Z,4.80
2023-03-05T07:31:59.066Z,4.68
2023-03-05T07:33:02.783Z,6.03
2023-03-05T07:34:06.645Z,4.20
2023-03-05T07:35:09.747Z,4.97
2023-03-05T07:36:13.496Z,4.18
2023-03-05T07:37:16.010Z,5.20
2023-03-05T07:38:19.786Z,5.93
2023-03-05T07:39:22.676Z,5.75
2023-03-05T07:40:26.583Z,4.95
2023-03-05T07:41:29.290Z,4.68
2023-03-05T07:42:32.162Z,4.50
2023-03-05T07:43:47.894Z,5.30
2023-03-05T07:44:50.851Z,5.60
2023-03-05T07:45:54.612Z,5.15
2023-03-05T07:46:57.231Z,5.45
2023-03-05T07:47:59.931Z,5.95
2023-03-05T07:49:02.810Z,5.40
2023-03-05T07:50:05.982Z,5.13
2023-03-05T07:51:14.858Z,5.28
2023-03-05T07:52:18.756Z,4.50
2023-03-05T07:53:21.830Z,4.50
2023-03-05T07:54:24.373Z,5.63
2023-03-05T07:55:29.409Z,4.53
2023-03-05T07:56:35.444Z,5.63
2023-03-05T07:57:39.195Z,5.60
2023-03-05T07:58:41.881Z,4.68
2023-03-05T07:59:44.577Z,4.30
2023-03-05T08:00:47.376Z,4.97
2023-03-05T08:01:50.061Z,4.45
2023-03-05T08:02:52.784Z,5.13
2023-03-05T08:03:56.276Z,4.63
2023-03-05T08:04:59.080Z,5.03
2023-03-05T08:06:05.859Z,5.15
2023-03-05T08:07:08.757Z,4.30
2023-03-05T08:08:11.754Z,5.43
2023-03-05T08:09:14.524Z,4.60
2023-03-05T08:10:18.115Z,5.32
2023-03-05T08:11:20.857Z,5.40
2023-03-05T08:12:23.589Z,5.07
2023-03-05T08:13:26.167Z,4.97
2023-03-05T08:14:29.033Z,4.70
2023-03-05T08:15:31.924Z,5.90
2023-03-05T08:16:34.796Z,6.00
2023-03-05T08:17:37.524Z,4.75
2023-03-05T08:18:40.392Z,5.25
2023-03-05T08:19:43.020Z,5.50
2023-03-05T08:20:45.611Z,4.90
2023-03-05T08:21:48.488Z,5.80
2023-03-05T08:22:51.321Z,5.35
2023-03-05T08:23:53.940Z,5.40
2023-03-05T08:24:56.541Z,5.80
2023-03-05T08:25:59.140Z,5.22
2023-03-05T08:27:02.397Z,5.47
2023-03-05T08:28:05.268Z,5.63
2023-03-05T08:29:09.669Z,5.45
2023-03-05T08:30:15.814Z,5.38
2023-03-05T08:31:21.615Z,5.70
2023-03-05T08:32:24.428Z,6.13
2023-03-05T08:33:30.957Z,6.10
2023-03-05T08:34:34.186Z,5.80
2023-03-05T08:35:37.132Z,5.93
2023-03-05T08:36:39.664Z,6.90
2023-03-05T08:37:42.789Z,6.72
2023-03-05T08:38:46.823Z,6.28
2023-03-05T08:39:49.591Z,6.70
2023-03-05T08:40:52.455Z,6.88
2023-03-05T08:41:55.171Z,6.30
2023-03-05T08:42:58.610Z,5.88
2023-03-05T08:44:01.307Z,4.75
2023-03-05T08:45:04.369Z,5.88
2023-03-05T08:46:07.745Z,6.30
2023-03-05T08:47:11.038Z,5.80
2023-03-05T08:48:14.067Z,5.93
2023-03-05T08:49:22.125Z,7.53
2023-03-05T08:50:26.167Z,6.72
2023-03-05T08:51:29.310Z,5.47
2023-03-05T08:52:32.094Z,6.10
2023-03-05T08:53:34.747Z,5.68
2023-03-05T08:54:38.135Z,5.88
2023-03-05T08:55:42.679Z,5.93
2023-03-05T08:56:46.738Z,6.55
2023-03-05T08:57:49.431Z,6.07
2023-03-05T08:58:53.071Z,5.80
2023-03-05T08:59:55.759Z,5.93
2023-03-05T09:01:00.518Z,5.88
2023-03-05T09:02:03.692Z,5.75
2023-03-05T09:03:06.461Z,6.22
2023-03-05T09:04:10.261Z,5.53
2023-03-05T09:05:13.425Z,5.90
2023-03-05T09:06:16.462Z,5.68
2023-03-05T09:07:19.101Z,6.10
2023-03-05T09:08:21.825Z,5.95
2023-03-05T09:09:25.017Z,5.72
2023-03-05T09:10:27.854Z,4.93
2023-03-05T09:11:30.780Z,5.45
2023-03-05T09:12:33.788Z,5.40
2023-03-05T09:13:36.924Z,6.40
2023-03-05T09:14:42.295Z,5.28
2023-03-05T09:15:44.948Z,5.88
2023-03-05T09:16:47.768Z,6.00
2023-03-05T09:17:52.099Z,5.65
2023-03-05T09:18:54.822Z,6.40
2023-03-05T09:19:57.358Z,6.57
2023-03-05T09:21:05.761Z,5.50
2023-03-05T09:22:08.555Z,6.55
2023-03-05T09:23:11.798Z,5.78
2023-03-05T09:24:14.544Z,5.47
2023-03-05T09:25:17.328Z,6.28
2023-03-05T09:26:20.637Z,5.65
2023-03-05T09:27:23.842Z,6.07
2023-03-05T09:28:28.371Z,6.18
2023-03-05T09:29:31.607Z,5.63
2023-03-05T09:30:35.288Z,6.30
2023-03-05T09:31:38.753Z,6.32
2023-03-05T09:32:41.653Z,6.63
2023-03-05T09:33:44.851Z,6.93
2023-03-05T09:34:48.134Z,8.23
2023-03-05T09:35:50.806Z,6.15
2023-03-05T09:36:53.723Z,6.00
2023-03-05T09:37:56.901Z,6.57
2023-03-05T09:38:59.667Z,6.05
2023-03-05T09:40:02.557Z,5.72
2023-03-05T09:42:00.441Z,6.18
2023-03-05T09:43:26.393Z,5.07
2023-03-05T09:44:44.100Z,6.13
2023-03-05T09:46:19.336Z,6.28
2023-03-05T09:47:39.654Z,5.47
2023-03-05T09:49:17.713Z,5.28
2023-03-05T09:50:52.169Z,5.45
2023-03-05T09:52:02.027Z,4.82
2023-03-05T09:53:25.681Z,5.82
2023-03-05T09:54:38.916Z,6.63
2023-03-05T09:55:48.462Z,6.30
2023-03-05T09:56:57.148Z,5.78
2023-03-05T09:58:30.068Z,6.28
2023-03-05T09:59:43.720Z,6.25
2023-03-05T10:00:50.927Z,4.55
2023-03-05T10:01:54.335Z,5.72
2023-03-05T10:02:58.695Z,6.75
2023-03-05T10:04:14.887Z,8.18
2023-03-05T10:05:29.204Z,5.65
2023-03-05T10:06:37.471Z,6.47
2023-03-05T10:07:45.318Z,5.82
2023-03-05T10:09:05.451Z,6.05
2023-03-05T10:10:16.055Z,6.38
2023-03-05T10:11:53.818Z,6.65
2023-03-05T10:13:02.493Z,6.65
2023-03-05T10:14:05.971Z,7.65
2023-03-05T10:15:32.504Z,6.38
2023-03-05T10:16:46.177Z,7.18
2023-03-05T10:17:51.937Z,7.22
2023-03-05T10:19:17.919Z,6.97
2023-03-05T10:20:23.587Z,6.70
2023-03-05T10:21:32.776Z,7.97
2023-03-05T10:23:04.890Z,6.47
2023-03-05T10:24:10.335Z,5.07
2023-03-05T10:25:48.694Z,5.80
2023-03-05T10:27:00.171Z,4.50
2023-03-05T10:28:06.203Z,4.60
2023-03-05T10:29:24.414Z,6.20
2023-03-05T10:30:32.862Z,6.78
2023-03-05T10:31:50.813Z,7.13
2023-03-05T10:33:02.846Z,7.65
2023-03-05T10:34:25.551Z,7.28
2023-03-05T10:35:46.866Z,5.13
2023-03-05T10:37:14.058Z,5.07
2023-03-05T10:38:25.592Z,5.18
2023-03-05T10:39:40.145Z,5.03
2023-03-05T10:40:48.051Z,5.70
2023-03-05T10:42:24.301Z,4.65
2023-03-05T10:43:45.704Z,5.78
2023-03-05T10:44:53.504Z,5.20
2023-03-05T10:46:05.443Z,5.18
2023-03-05T10:47:17.195Z,5.10
2023-03-05T10:48:40.019Z,5.38
2023-03-05T10:49:50.809Z,4.85
2023-03-05T10:51:35.406Z,5.40
2023-03-05T10:52:41.454Z,5.97
2023-03-05T10:53:59.895Z,5.95
2023-03-05T10:55:17.986Z,7.05
2023-03-05T10:56:23.159Z,7.03
2023-03-05T10:57:31.554Z,5.55
2023-03-05T10:58:34.373Z,6.18
2023-03-05T10:59:36.947Z,6.57
2023-03-05T11:00:41.401Z,6.50
2023-03-05T11:02:02.721Z,6.45
2023-03-05T11:03:09.991Z,6.35
2023-03-05T11:04:29.943Z,6.68
2023-03-05T11:06:01.236Z,7.15
2023-03-05T11:07:14.898Z,9.70
2023-03-05T11:08:32.746Z,7.90
2023-03-05T11:09:35.446Z,6.25
2023-03-05T11:10:38.221Z,5.28
2023-03-05T11:11:41.788Z,5.18
2023-03-05T11:12:45.305Z,6.00
2023-03-05T11:14:03.783Z,5.68
2023-03-05T11:15:12.344Z,6.28
2023-03-05T11:16:24.794Z,6.07
2023-03-05T11:17:29.020Z,4.28
2023-03-05T11:18:34.796Z,4.40
2023-03-05T11:19:39.609Z,3.78
2023-03-05T11:20:42.605Z,3.83
2023-03-05T11:21:46.946Z,5.03
2023-03-05T11:23:09.781Z,4.28
2023-03-05T11:24:16.447Z,4.13
2023-03-05T11:25:21.463Z,3.97
2023-03-05T11:26:24.239Z,3.92
2023-03-05T11:27:54.623Z,3.20
2023-03-05T11:29:01.736Z,3.78
2023-03-05T11:30:28.399Z,4.18
2023-03-05T11:31:32.984Z,3.92
2023-03-05T11:32:35.580Z,3.47
2023-03-05T11:33:38.934Z,3.70
2023-03-05T11:34:41.853Z,3.03
2023-03-05T11:35:44.591Z,3.90
2023-03-05T11:36:53.205Z,4.03
2023-03-05T11:38:01.634Z,3.58
2023-03-05T11:39:25.151Z,3.25
2023-03-05T11:40:29.148Z,3.90
2023-03-05T11:41:46.500Z,3.70
2023-03-05T11:42:57.280Z,3.20
2023-03-05T11:45:03.711Z,3.58
2023-03-05T11:46:06.436Z,3.75
2023-03-05T11:47:29.483Z,4.60
2023-03-05T11:48:39.486Z,4.50
2023-03-05T11:49:45.711Z,4.07
2023-03-05T11:50:53.502Z,4.50
2023-03-05T11:52:23.412Z,3.90
2023-03-05T11:53:31.293Z,4.80
2023-03-05T11:54:46.045Z,5.07
2023-03-05T11:56:18.954Z,4.32
2023-03-05T11:57:23.502Z,3.33
2023-03-05T11:58:43.992Z,4.65
2023-03-05T11:59:46.760Z,4.78
2023-03-05T12:00:49.759Z,4.40
2023-03-05T12:01:54.803Z,4.30
2023-03-05T12:03:00.176Z,3.95
2023-03-05T12:04:04.561Z,3.60
2023-03-05T12:05:08.197Z,4.03
2023-03-05T12:06:25.881Z,3.92
2023-03-05T12:07:38.253Z,3.60
2023-03-05T12:08:45.201Z,4.50
2023-03-05T12:09:50.700Z,4.07
2023-03-05T12:10:53.569Z,4.43
2023-03-05T12:12:12.632Z,3.42
2023-03-05T12:13:29.599Z,3.72
2023-03-05T12:14:48.784Z,3.35
2023-03-05T12:16:13.775Z,4.15
2023-03-05T12:17:55.619Z,3.97
2023-03-05T12:18:58.269Z,4.47
2023-03-05T12:20:18.893Z,5.05
2023-03-05T12:21:34.358Z,4.68
2023-03-05T12:22:39.758Z,6.00
2023-03-05T12:23:51.875Z,5.60
2023-03-05T12:24:54.765Z,6.45
2023-03-05T12:25:59.471Z,5.15
2023-03-05T12:27:02.336Z,5.30
2023-03-05T12:28:05.251Z,6.90
2023-03-05T12:29:47.774Z,11.75
2023-03-05T12:30:50.284Z,6.75
2023-03-05T12:31:52.947Z,6.93
2023-03-05T12:32:56.121Z,7.97
2023-03-05T12:33:58.780Z,7.47
2023-03-05T12:35:06.305Z,6.68
2023-03-05T12:36:17.709Z,4.93
2023-03-05T12:37:23.460Z,6.00
2023-03-05T12:38:30.301Z,7.60
2023-03-05T12:40:12.833Z,5.43
2023-03-05T12:41:27.496Z,4.90
2023-03-05T12:42:30.752Z,4.80
2023-03-05T12:43:34.112Z,5.57
2023-03-05T12:44:39.737Z,4.30
2023-03-05T12:45:42.807Z,4.50
2023-03-05T12:46:49.294Z,4.07
2023-03-05T12:47:57.579Z,4.45
2023-03-05T12:49:23.025Z,4.13
2023-03-05T12:50:28.490Z,4.18
2023-03-05T12:51:37.966Z,3.92
2023-03-05T12:52:42.712Z,3.88
2023-03-05T12:53:45.533Z,4.93
2023-03-05T12:55:03.978Z,4.60
2023-03-05T12:56:19.424Z,4.25
2023-03-05T12:57:24.790Z,4.63
2023-03-05T12:58:43.789Z,4.15
2023-03-05T13:00:01.994Z,5.72
2023-03-05T13:01:16.722Z,4.93
2023-03-05T13:02:23.989Z,4.45
2023-03-05T13:03:33.707Z,4.32
2023-03-05T13:04:37.300Z,4.87
2023-03-05T13:05:49.837Z,5.10
2023-03-05T13:07:18.500Z,5.35
2023-03-05T13:08:32.311Z,5.95
2023-03-05T13:09:36.564Z,6.20
2023-03-05T13:10:42.043Z,6.47
2023-03-05T13:11:48.741Z,5.07
2023-03-05T13:12:54.161Z,4.82
2023-03-05T13:13:57.963Z,5.90
2023-03-05T13:15:05.840Z,5.25
2023-03-05T13:16:27.334Z,5.57
2023-03-05T13:17:52.222Z,5.03
2023-03-05T13:18:58.079Z,5.15
2023-03-05T13:20:02.146Z,4.90
2023-03-05T13:21:08.048Z,5.13
2023-03-05T13:22:12.138Z,5.63
2023-03-05T13:23:18.264Z,4.68
2023-03-05T13:24:20.939Z,4.75
2023-03-05T13:25:23.480Z,4.90
2023-03-05T13:26:30.037Z,4.78
2023-03-05T13:27:33.303Z,4.63
2023-03-05T13:28:39.371Z,5.03
2023-03-05T13:29:51.863Z,5.10
2023-03-05T13:31:24.601Z,5.35
2023-03-05T13:32:32.344Z,5.30
2023-03-05T13:33:36.807Z,4.85
2023-03-05T13:34:47.918Z,5.75
2023-03-05T13:35:53.997Z,5.07
2023-03-05T13:37:00.325Z,4.68
2023-03-05T13:38:02.931Z,5.63
2023-03-05T13:39:06.875Z,6.25
2023-03-05T13:40:30.317Z,6.05
2023-03-05T13:41:33.145Z,6.80
2023-03-05T13:42:37.668Z,6.00
2023-03-05T13:43:46.450Z,5.47
2023-03-05T13:45:06.801Z,5.45
2023-03-05T13:46:09.469Z,5.07
2023-03-05T13:47:21.188Z,5.50
2023-03-05T13:48:23.695Z,4.95
2023-03-05T13:49:28.513Z,4.93
2023-03-05T13:50:35.965Z,4.45
2023-03-05T13:51:46.566Z,5.35
2023-03-05T13:52:49.928Z,6.38
2023-03-05T13:53:52.832Z,6.70
2023-03-05T13:54:55.817Z,7.00
2023-03-05T13:56:01.487Z,5.30
2023-03-05T13:57:08.768Z,5.22
2023-03-05T13:58:49.035Z,5.30
2023-03-05T13:59:53.989Z,4.90
2023-03-05T14:01:07.110Z,4.88
2023-03-05T14:02:18.335Z,6.07
2023-03-05T14:03:27.175Z,5.60
2023-03-05T14:04:34.557Z,5.15
2023-03-05T14:05:37.402Z,4.43
2023-03-05T14:06:55.245Z,3.90
2023-03-05T14:07:58.522Z,3.97
2023-03-05T14:09:16.833Z,3.75
2023-03-05T14:10:35.158Z,5.15
2023-03-05T14:11:37.763Z,5.13
2023-03-05T14:12:42.887Z,4.80
2023-03-05T14:13:46.587Z,3.88
2023-03-05T14:14:49.269Z,4.88
2023-03-05T14:16:03.465Z,5.40
2023-03-05T14:17:36.550Z,5.68
2023-03-05T14:18:39.777Z,4.75
2023-03-05T14:19:42.448Z,5.07
2023-03-05T14:21:03.799Z,5.45
2023-03-05T14:22:06.682Z,6.18
2023-03-05T14:23:27.314Z,4.80
2023-03-05T14:24:31.427Z,4.55
2023-03-05T14:25:39.981Z,4.03
2023-03-05T14:26:49.944Z,5.80
2023-03-05T14:27:52.690Z,5.35
2023-03-05T14:29:14.292Z,6.07
2023-03-05T14:30:17.959Z,4.90
2023-03-05T14:31:21.681Z,4.35
2023-03-05T14:32:29.224Z,5.20
2023-03-05T14:33:33.514Z,5.68
2023-03-05T14:34:41.245Z,5.30
2023-03-05T14:35:49.151Z,4.32
2023-03-05T14:36:54.154Z,5.40
2023-03-05T14:37:58.450Z,4.32
2023-03-05T14:39:02.157Z,4.95
2023-03-05T14:40:07.405Z,4.13
2023-03-05T14:41:39.375Z,4.20
2023-03-05T14:43:06.974Z,4.20